Station Historical Data
Daily Summary for June 19, 2017 Units:  English    Metric   Both
Next Day »
Daily Weekly Monthly Yearly Custom
  High: Low: Average:
Temperature: 93.7 °F 73.6 °F 82.7 °F
Dew Point: 69.5 °F 54.6 °F 63 °F
Humidity: 70% 41% 52%
Wind Speed: 12.0mph 0.0mph 1.2mph
Wind Gust: 18.0mph - -
Wind- - SE
Pressure: 29.80 in 29.73 in -
Precipitation: 0.00 in    
Historical Graphs
 
 
Tabular Data for June 19, 2017
Time Temperature Dew Point Pressure Wind Wind Speed Wind Gust Humidity Rainfall Rate (Hourly) solar Conditions
00:04 78.2 °F 64.6 °F 29.75 in Calm   4.0 mph 63% 0.00 in 0.00 W/m2
00:09 78.2 °F 65.0 °F 29.75 in Calm   4.0 mph 64% 0.00 in 0.00 W/m2
00:14 78.1 °F 64.9 °F 29.75 in Calm   4.0 mph 64% 0.00 in 0.00 W/m2
00:19 78.1 °F 64.9 °F 29.75 in ESE 5.0 mph 7.0 mph 64% 0.00 in 0.00 W/m2
00:24 78.1 °F 64.9 °F 29.75 in Calm   4.0 mph 64% 0.00 in 0.00 W/m2
00:29 78.0 °F 64.8 °F 29.75 in Calm   4.0 mph 64% 0.00 in 0.00 W/m2
00:30 78.0 °F 64.8 °F 29.75 in East 2.0 mph 4.0 mph 64% 0.00 in 0.00 W/m2
00:35 78.0 °F 64.4 °F 29.75 in ESE 2.0 mph 7.0 mph 63% 0.00 in 0.00 W/m2
00:40 78.0 °F 64.4 °F 29.75 in ESE 4.0 mph 11.0 mph 63% 0.00 in 0.00 W/m2
00:50 78.0 °F 63.9 °F 29.75 in East 1.0 mph 5.0 mph 62% 0.00 in 0.00 W/m2
00:55 78.1 °F 63.6 °F 29.75 in Calm   4.0 mph 61% 0.00 in 0.00 W/m2
01:00 78.1 °F 63.6 °F 29.75 in Calm   5.0 mph 61% 0.00 in 0.00 W/m2
01:05 78.1 °F 63.1 °F 29.75 in Calm   6.0 mph 60% 0.00 in 0.00 W/m2
01:10 78.1 °F 62.1 °F 29.74 in East 2.0 mph 5.0 mph 58% 0.00 in 0.00 W/m2
01:15 78.1 °F 62.1 °F 29.75 in East 5.0 mph 6.0 mph 58% 0.00 in 0.00 W/m2
01:20 78.1 °F 60.6 °F 29.75 in East 2.0 mph 8.0 mph 55% 0.00 in 0.00 W/m2
01:25 78.1 °F 60.6 °F 29.74 in East 6.0 mph 9.0 mph 55% 0.00 in 0.00 W/m2
01:30 78.1 °F 60.1 °F 29.74 in Calm   2.0 mph 54% 0.00 in 0.00 W/m2
01:35 78.2 °F 59.7 °F 29.74 in Calm     53% 0.00 in 0.00 W/m2
01:40 78.2 °F 59.7 °F 29.73 in East 1.0 mph 6.0 mph 53% 0.00 in 0.00 W/m2
01:45 78.3 °F 59.8 °F 29.73 in Calm   4.0 mph 53% 0.00 in 0.00 W/m2
01:50 78.3 °F 59.8 °F 29.73 in East 4.0 mph 7.0 mph 53% 0.00 in 0.00 W/m2
01:55 78.3 °F 59.8 °F 29.73 in Calm   4.0 mph 53% 0.00 in 0.00 W/m2
02:00 78.3 °F 59.2 °F 29.73 in Calm   1.0 mph 52% 0.00 in 0.00 W/m2
02:05 78.2 °F 58.6 °F 29.73 in Calm     51% 0.00 in 0.00 W/m2
02:10 78.1 °F 59.1 °F 29.73 in Calm     52% 0.00 in 0.00 W/m2
02:15 78.0 °F 59.0 °F 29.73 in Calm   2.0 mph 52% 0.00 in 0.00 W/m2
02:20 77.9 °F 57.8 °F 29.73 in Calm   7.0 mph 50% 0.00 in 0.00 W/m2
02:25 77.9 °F 58.3 °F 29.73 in ESE 2.0 mph 8.0 mph 51% 0.00 in 0.00 W/m2
02:30 77.9 °F 58.3 °F 29.73 in ESE 2.0 mph 8.0 mph 51% 0.00 in 0.00 W/m2
02:35 77.8 °F 58.8 °F 29.73 in Calm   6.0 mph 52% 0.00 in 0.00 W/m2
02:40 77.8 °F 58.8 °F 29.73 in East 1.0 mph 5.0 mph 52% 0.00 in 0.00 W/m2
02:45 77.7 °F 59.2 °F 29.73 in East 4.0 mph 6.0 mph 53% 0.00 in 0.00 W/m2
02:50 77.6 °F 58.1 °F 29.73 in East 1.0 mph 5.0 mph 51% 0.00 in 0.00 W/m2
02:55 77.6 °F 58.6 °F 29.73 in Calm   5.0 mph 52% 0.00 in 0.00 W/m2
03:00 77.6 °F 58.1 °F 29.74 in ESE 2.0 mph 6.0 mph 51% 0.00 in 0.00 W/m2
03:05 77.6 °F 57.5 °F 29.74 in ESE 1.0 mph 7.0 mph 50% 0.00 in 0.00 W/m2
03:10 77.6 °F 57.5 °F 29.74 in East 6.0 mph 6.0 mph 50% 0.00 in 0.00 W/m2
03:15 77.5 °F 57.4 °F 29.74 in East 2.0 mph 6.0 mph 50% 0.00 in 0.00 W/m2
03:20 77.5 °F 57.4 °F 29.74 in Calm   6.0 mph 50% 0.00 in 0.00 W/m2
03:25 77.5 °F 57.4 °F 29.74 in Calm   5.0 mph 50% 0.00 in 0.00 W/m2
03:30 77.5 °F 56.9 °F 29.74 in Calm   5.0 mph 49% 0.00 in 0.00 W/m2
03:35 77.5 °F 56.9 °F 29.74 in Calm   4.0 mph 49% 0.00 in 0.00 W/m2
03:40 77.4 °F 56.8 °F 29.73 in East 1.0 mph 7.0 mph 49% 0.00 in 0.00 W/m2
03:42 77.5 °F 56.9 °F 29.73 in Calm   4.0 mph 49% 0.00 in 0.00 W/m2
03:47 77.4 °F 56.8 °F 29.74 in Calm   9.0 mph 49% 0.00 in 0.00 W/m2
03:52 77.4 °F 56.8 °F 29.74 in East 1.0 mph 6.0 mph 49% 0.00 in 0.00 W/m2
03:57 77.4 °F 56.8 °F 29.74 in East 1.0 mph 6.0 mph 49% 0.00 in 0.00 W/m2
04:02 77.4 °F 56.8 °F 29.74 in ESE 9.0 mph 12.0 mph 49% 0.00 in 0.00 W/m2
04:07 77.3 °F 56.7 °F 29.74 in Calm   8.0 mph 49% 0.00 in 0.00 W/m2
04:12 77.3 °F 56.1 °F 29.74 in ESE 1.0 mph 6.0 mph 48% 0.00 in 0.00 W/m2
04:17 77.3 °F 56.7 °F 29.74 in Calm   7.0 mph 49% 0.00 in 0.00 W/m2
04:22 77.3 °F 56.1 °F 29.74 in East 2.0 mph 6.0 mph 48% 0.00 in 0.00 W/m2
04:27 77.3 °F 56.7 °F 29.74 in ESE 1.0 mph 9.0 mph 49% 0.00 in 0.00 W/m2
04:32 77.2 °F 56.0 °F 29.74 in East 12.0 mph 12.0 mph 48% 0.00 in 0.00 W/m2
04:37 77.2 °F 56.0 °F 29.74 in ESE 8.0 mph 11.0 mph 48% 0.00 in 0.00 W/m2
04:42 77.2 °F 56.0 °F 29.74 in ESE 6.0 mph 12.0 mph 48% 0.00 in 0.00 W/m2
04:47 77.3 °F 56.1 °F 29.74 in ESE 2.0 mph 8.0 mph 48% 0.00 in 0.00 W/m2
04:52 77.2 °F 56.0 °F 29.74 in East 4.0 mph 11.0 mph 48% 0.00 in 0.00 W/m2
04:57 77.2 °F 56.0 °F 29.74 in East 5.0 mph 9.0 mph 48% 0.00 in 0.00 W/m2
05:02 77.2 °F 55.4 °F 29.74 in ESE 5.0 mph 11.0 mph 47% 0.00 in 0.00 W/m2
05:07 77.1 °F 54.8 °F 29.74 in Calm   12.0 mph 46% 0.00 in 0.00 W/m2
05:12 77.1 °F 55.3 °F 29.74 in ESE 1.0 mph 6.0 mph 47% 0.00 in 0.00 W/m2
05:17 77.1 °F 55.9 °F 29.74 in ESE 5.0 mph 13.0 mph 48% 0.00 in 0.00 W/m2
05:22 77.1 °F 55.9 °F 29.74 in East 1.0 mph 10.0 mph 48% 0.00 in 0.00 W/m2
05:27 77.0 °F 55.8 °F 29.74 in East 1.0 mph 5.0 mph 48% 0.00 in 0.00 W/m2
05:32 77.0 °F 55.8 °F 29.74 in ESE 1.0 mph 5.0 mph 48% 0.00 in 0.00 W/m2
05:37 76.9 °F 55.2 °F 29.74 in East 2.0 mph 11.0 mph 47% 0.00 in 5.00 W/m2
05:42 76.9 °F 55.2 °F 29.74 in SE 4.0 mph 15.0 mph 47% 0.00 in 7.00 W/m2
05:47 76.9 °F 55.2 °F 29.74 in East 2.0 mph 13.0 mph 47% 0.00 in 11.00 W/m2
05:52 76.9 °F 54.6 °F 29.75 in Calm   4.0 mph 46% 0.00 in 14.00 W/m2
05:57 76.9 °F 55.2 °F 29.74 in East 2.0 mph 5.0 mph 47% 0.00 in 16.00 W/m2
06:02 76.9 °F 55.2 °F 29.75 in ESE 2.0 mph 7.0 mph 47% 0.00 in 19.00 W/m2
06:07 76.9 °F 55.2 °F 29.75 in Calm   7.0 mph 47% 0.00 in 21.00 W/m2
06:12 76.9 °F 55.7 °F 29.75 in East 1.0 mph 6.0 mph 48% 0.00 in 23.00 W/m2
06:13 76.9 °F 55.2 °F 29.75 in Calm   6.0 mph 47% 0.00 in 25.00 W/m2
06:18 76.9 °F 55.2 °F 29.74 in East 5.0 mph 6.0 mph 47% 0.00 in 40.00 W/m2
06:23 76.8 °F 55.7 °F 29.75 in Calm   4.0 mph 48% 0.00 in 49.00 W/m2
06:28 76.7 °F 55.5 °F 29.75 in ESE 1.0 mph 6.0 mph 48% 0.00 in 60.00 W/m2
06:33 76.7 °F 55.5 °F 29.75 in Calm   7.0 mph 48% 0.00 in 72.00 W/m2
06:38 76.6 °F 55.5 °F 29.75 in East 1.0 mph 7.0 mph 48% 0.00 in 86.00 W/m2
06:43 76.5 °F 55.9 °F 29.75 in East 1.0 mph 12.0 mph 49% 0.00 in 104.00 W/m2
06:48 76.5 °F 55.9 °F 29.75 in Calm   7.0 mph 49% 0.00 in 120.00 W/m2
06:53 76.4 °F 56.4 °F 29.75 in ESE 1.0 mph 8.0 mph 50% 0.00 in 139.00 W/m2
06:58 76.3 °F 56.3 °F 29.76 in ESE 4.0 mph 10.0 mph 50% 0.00 in 158.00 W/m2
07:03 76.3 °F 56.9 °F 29.76 in ESE 6.0 mph 7.0 mph 51% 0.00 in 178.00 W/m2
07:08 76.3 °F 56.9 °F 29.76 in Calm   9.0 mph 51% 0.00 in 197.00 W/m2
07:13 76.2 °F 56.8 °F 29.76 in East 4.0 mph 8.0 mph 51% 0.00 in 225.00 W/m2
07:18 76.2 °F 56.2 °F 29.76 in ESE 5.0 mph 9.0 mph 50% 0.00 in 257.00 W/m2
07:23 76.2 °F 56.8 °F 29.77 in ESE 1.0 mph 6.0 mph 51% 0.00 in 160.00 W/m2
07:29 76.2 °F 57.3 °F 29.77 in ESE 7.0 mph 9.0 mph 52% 0.00 in 90.00 W/m2
07:34 76.3 °F 56.9 °F 29.77 in East 1.0 mph 7.0 mph 51% 0.00 in 86.00 W/m2
07:39 76.4 °F 57.5 °F 29.78 in East 4.0 mph 7.0 mph 52% 0.00 in 74.00 W/m2
07:44 76.5 °F 57.6 °F 29.78 in Calm   12.0 mph 52% 0.00 in 51.00 W/m2
07:49 76.6 °F 57.1 °F 29.78 in ESE 1.0 mph 9.0 mph 51% 0.00 in 40.00 W/m2
07:54 76.6 °F 57.7 °F 29.78 in Calm   5.0 mph 52% 0.00 in 35.00 W/m2
07:59 76.6 °F 58.2 °F 29.78 in Calm   11.0 mph 53% 0.00 in 35.00 W/m2
08:04 76.5 °F 58.1 °F 29.78 in Calm   7.0 mph 53% 0.00 in 40.00 W/m2
08:09 76.3 °F 58.5 °F 29.77 in ENE 4.0 mph 7.0 mph 54% 0.00 in 47.00 W/m2
08:14 76.1 °F 57.2 °F 29.77 in ENE 6.0 mph 8.0 mph 52% 0.00 in 83.00 W/m2
08:19 76.1 °F 58.8 °F 29.76 in ENE 2.0 mph 10.0 mph 55% 0.00 in 130.00 W/m2
08:24 76.0 °F 59.2 °F 29.77 in Calm     56% 0.00 in 436.00 W/m2
08:29 76.1 °F 61.7 °F 29.78 in South 3.0 mph 11.0 mph 61% 0.00 in 114.00 W/m2
08:34 75.6 °F 63.0 °F 29.78 in Calm     65% 0.00 in 158.00 W/m2
08:39 75.4 °F 64.1 °F 29.79 in East 8.0 mph 13.0 mph 68% 0.00 in 497.00 W/m2
08:44 74.9 °F 62.8 °F 29.79 in ENE 6.0 mph 16.0 mph 66% 0.00 in 63.00 W/m2
08:49 74.6 °F 62.1 °F 29.79 in ESE 4.0 mph 11.0 mph 65% 0.00 in 44.00 W/m2
08:54 74.3 °F 61.3 °F 29.80 in ESE 2.0 mph 18.0 mph 64% 0.00 in 40.00 W/m2
08:57 74.2 °F 62.1 °F 29.79 in East 1.0 mph 5.0 mph 66% 0.00 in 40.00 W/m2
09:02 73.9 °F 62.7 °F 29.79 in East 12.0 mph 12.0 mph 68% 0.00 in 46.00 W/m2
09:07 73.7 °F 61.7 °F 29.79 in East 4.0 mph 6.0 mph 66% 0.00 in 63.00 W/m2
09:12 73.6 °F 61.1 °F 29.79 in Calm     65% 0.00 in 555.00 W/m2
09:17 73.6 °F 60.7 °F 29.78 in Calm     64% 0.00 in 714.00 W/m2
09:22 73.9 °F 61.8 °F 29.78 in ESE 2.0 mph 5.0 mph 66% 0.00 in 777.00 W/m2
09:27 74.7 °F 64.3 °F 29.78 in Calm   4.0 mph 70% 0.00 in 206.00 W/m2
09:32 75.1 °F 63.8 °F 29.78 in Calm     68% 0.00 in 195.00 W/m2
09:37 75.4 °F 64.1 °F 29.79 in Calm   4.0 mph 68% 0.00 in 752.00 W/m2
09:42 75.9 °F 62.9 °F 29.78 in Calm   4.0 mph 64% 0.00 in 742.00 W/m2
09:47 76.9 °F 64.2 °F 29.78 in ESE 4.0 mph 6.0 mph 65% 0.00 in 782.00 W/m2
09:52 77.5 °F 63.5 °F 29.78 in ESE 1.0 mph 6.0 mph 62% 0.00 in 754.00 W/m2
09:57 78.0 °F 63.5 °F 29.78 in ESE 4.0 mph 5.0 mph 61% 0.00 in 199.00 W/m2
10:02 78.5 °F 64.0 °F 29.78 in Calm     61% 0.00 in 752.00 W/m2
10:04 78.7 °F 65.1 °F 29.78 in Calm     63% 0.00 in 751.00 W/m2
10:09 79.2 °F 65.1 °F 29.78 in Calm     62% 0.00 in 754.00 W/m2
10:14 79.4 °F 64.8 °F 29.78 in ESE 2.0 mph 4.0 mph 61% 0.00 in 782.00 W/m2
10:19 79.7 °F 64.1 °F 29.78 in Calm     59% 0.00 in 796.00 W/m2
10:24 80.1 °F 65.4 °F 29.78 in Calm     61% 0.00 in 770.00 W/m2
10:29 80.7 °F 63.0 °F 29.78 in Calm     55% 0.00 in 763.00 W/m2
10:34 81.5 °F 62.7 °F 29.78 in Calm     53% 0.00 in 840.00 W/m2
10:39 82.4 °F 64.1 °F 29.78 in Calm     54% 0.00 in 807.00 W/m2
10:44 83.3 °F 64.4 °F 29.78 in Calm   4.0 mph 53% 0.00 in 809.00 W/m2
10:49 84.0 °F 63.4 °F 29.78 in Calm   1.0 mph 50% 0.00 in 817.00 W/m2
10:54 84.5 °F 64.4 °F 29.78 in Calm     51% 0.00 in 824.00 W/m2
10:59 85.1 °F 65.0 °F 29.78 in NE 1.0 mph 2.0 mph 51% 0.00 in 833.00 W/m2
11:04 85.7 °F 64.9 °F 29.77 in Calm   2.0 mph 50% 0.00 in 837.00 W/m2
11:09 86.2 °F 66.0 °F 29.77 in Calm   4.0 mph 51% 0.00 in 846.00 W/m2
11:14 86.6 °F 66.3 °F 29.78 in Calm   3.0 mph 51% 0.00 in 854.00 W/m2
11:19 86.9 °F 66.0 °F 29.78 in Calm   3.0 mph 50% 0.00 in 860.00 W/m2
11:24 87.1 °F 65.6 °F 29.77 in NW 2.0 mph 2.0 mph 49% 0.00 in 868.00 W/m2
11:29 87.3 °F 65.2 °F 29.77 in Calm   2.0 mph 48% 0.00 in 875.00 W/m2
11:34 87.5 °F 65.4 °F 29.77 in West 1.0 mph 3.0 mph 48% 0.00 in 882.00 W/m2
11:39 87.6 °F 64.3 °F 29.77 in West 4.0 mph 6.0 mph 46% 0.00 in 889.00 W/m2
11:44 87.7 °F 63.8 °F 29.77 in West 2.0 mph 2.0 mph 45% 0.00 in 896.00 W/m2
11:49 87.9 °F 65.2 °F 29.77 in Calm   4.0 mph 47% 0.00 in 898.00 W/m2
11:54 88.2 °F 65.4 °F 29.77 in Calm   2.0 mph 47% 0.00 in 902.00 W/m2
11:59 88.4 °F 66.2 °F 29.77 in Calm   3.0 mph 48% 0.00 in 907.00 W/m2
12:04 88.6 °F 67.0 °F 29.77 in West 4.0 mph 6.0 mph 49% 0.00 in 909.00 W/m2
12:09 88.8 °F 67.2 °F 29.78 in WSW 4.0 mph 7.0 mph 49% 0.00 in 916.00 W/m2
12:14 89.0 °F 66.8 °F 29.78 in West 4.0 mph 7.0 mph 48% 0.00 in 919.00 W/m2
12:19 89.2 °F 66.3 °F 29.78 in WSW 2.0 mph 7.0 mph 47% 0.00 in 923.00 W/m2
12:24 89.3 °F 66.4 °F 29.78 in Calm   4.0 mph 47% 0.00 in 926.00 W/m2
12:29 89.4 °F 65.9 °F 29.78 in West 5.0 mph 7.0 mph 46% 0.00 in 928.00 W/m2
12:34 89.6 °F 66.1 °F 29.78 in WSW 1.0 mph 5.0 mph 46% 0.00 in 933.00 W/m2
12:39 89.7 °F 65.6 °F 29.78 in South 4.0 mph 8.0 mph 45% 0.00 in 939.00 W/m2
12:44 90.0 °F 65.8 °F 29.78 in Calm   7.0 mph 45% 0.00 in 933.00 W/m2
12:49 90.3 °F 66.7 °F 29.78 in WSW 2.0 mph 3.0 mph 46% 0.00 in 935.00 W/m2
12:54 90.6 °F 66.4 °F 29.78 in Calm   9.0 mph 45% 0.00 in 940.00 W/m2
12:59 90.8 °F 66.6 °F 29.78 in Calm   6.0 mph 45% 0.00 in 939.00 W/m2
13:04 90.8 °F 66.6 °F 29.78 in West 2.0 mph 4.0 mph 45% 0.00 in 939.00 W/m2
13:09 90.8 °F 67.2 °F 29.78 in Calm   10.0 mph 46% 0.00 in 939.00 W/m2
13:15 91.1 °F 66.2 °F 29.78 in Calm   7.0 mph 44% 0.00 in 937.00 W/m2
13:20 91.3 °F 67.0 °F 29.78 in Calm     45% 0.00 in 935.00 W/m2
13:25 91.3 °F 67.6 °F 29.78 in Calm   1.0 mph 46% 0.00 in 932.00 W/m2
13:30 91.2 °F 66.9 °F 29.78 in WNW 1.0 mph 4.0 mph 45% 0.00 in 930.00 W/m2
13:35 91.5 °F 67.2 °F 29.78 in Calm   8.0 mph 45% 0.00 in 930.00 W/m2
13:40 91.9 °F 66.9 °F 29.78 in Calm   5.0 mph 44% 0.00 in 926.00 W/m2
13:45 92.7 °F 66.9 °F 29.78 in Calm   4.0 mph 43% 0.00 in 926.00 W/m2
13:46 92.8 °F 67.7 °F 29.78 in SSW 2.0 mph 2.0 mph 44% 0.00 in 926.00 W/m2
13:51 93.3 °F 67.5 °F 29.79 in WSW 1.0 mph 1.0 mph 43% 0.00 in 921.00 W/m2
13:56 93.7 °F 66.5 °F 29.78 in Calm     41% 0.00 in 916.00 W/m2
14:01 93.5 °F 67.0 °F 29.78 in Calm   4.0 mph 42% 0.00 in 916.00 W/m2
14:06 93.3 °F 66.8 °F 29.78 in Calm     42% 0.00 in 909.00 W/m2
14:11 93.2 °F 66.7 °F 29.78 in Calm     42% 0.00 in 904.00 W/m2
14:21 92.9 °F 67.8 °F 29.78 in Calm     44% 0.00 in 893.00 W/m2
14:26 92.9 °F 67.1 °F 29.78 in Calm     43% 0.00 in 889.00 W/m2
14:31 92.9 °F 67.1 °F 29.78 in Calm   1.0 mph 43% 0.00 in 882.00 W/m2
14:36 92.6 °F 66.2 °F 29.78 in Calm     42% 0.00 in 874.00 W/m2
14:41 92.4 °F 66.0 °F 29.78 in Calm     42% 0.00 in 870.00 W/m2
14:46 92.4 °F 66.7 °F 29.78 in Calm     43% 0.00 in 861.00 W/m2
14:51 92.3 °F 67.2 °F 29.78 in Calm     44% 0.00 in 854.00 W/m2
14:56 92.3 °F 67.2 °F 29.78 in Calm   5.0 mph 44% 0.00 in 847.00 W/m2
15:01 92.3 °F 66.6 °F 29.78 in Calm     43% 0.00 in 835.00 W/m2
15:06 92.3 °F 65.9 °F 29.78 in Calm     42% 0.00 in 830.00 W/m2
15:11 92.3 °F 66.6 °F 29.78 in West 2.0 mph 4.0 mph 43% 0.00 in 817.00 W/m2
15:16 92.4 °F 65.3 °F 29.78 in Calm     41% 0.00 in 809.00 W/m2
15:21 92.5 °F 65.4 °F 29.78 in Calm     41% 0.00 in 800.00 W/m2
15:26 92.5 °F 66.1 °F 29.78 in WNW 3.0 mph 3.0 mph 42% 0.00 in 789.00 W/m2
15:31 92.6 °F 65.5 °F 29.78 in Calm     41% 0.00 in 780.00 W/m2
15:36 92.7 °F 66.3 °F 29.78 in WNW 1.0 mph 2.0 mph 42% 0.00 in 772.00 W/m2
15:41 92.8 °F 66.4 °F 29.78 in Calm     42% 0.00 in 759.00 W/m2
15:46 92.8 °F 65.7 °F 29.77 in Calm     41% 0.00 in 745.00 W/m2
15:51 92.8 °F 66.4 °F 29.77 in Calm   1.0 mph 42% 0.00 in 737.00 W/m2
15:56 92.7 °F 65.6 °F 29.77 in Calm   6.0 mph 41% 0.00 in 724.00 W/m2
16:01 92.6 °F 66.2 °F 29.77 in Calm     42% 0.00 in 712.00 W/m2
16:06 92.4 °F 66.0 °F 29.77 in Calm     42% 0.00 in 698.00 W/m2
16:12 92.3 °F 65.2 °F 29.77 in Calm     41% 0.00 in 687.00 W/m2
16:17 92.3 °F 65.9 °F 29.77 in Calm     42% 0.00 in 679.00 W/m2
16:22 92.2 °F 65.8 °F 29.76 in West 1.0 mph 1.0 mph 42% 0.00 in 664.00 W/m2
16:27 92.2 °F 65.8 °F 29.77 in WSW 1.0 mph 2.0 mph 42% 0.00 in 647.00 W/m2
16:32 92.1 °F 65.0 °F 29.76 in Calm     41% 0.00 in 636.00 W/m2
16:37 92.1 °F 65.7 °F 29.76 in Calm   2.0 mph 42% 0.00 in 621.00 W/m2
16:42 92.0 °F 64.9 °F 29.76 in Calm   2.0 mph 41% 0.00 in 608.00 W/m2
16:47 92.1 °F 65.7 °F 29.76 in West 2.0 mph 4.0 mph 42% 0.00 in 591.00 W/m2
16:52 92.0 °F 66.3 °F 29.76 in West 3.0 mph 6.0 mph 43% 0.00 in 575.00 W/m2
16:57 92.0 °F 65.6 °F 29.76 in West 1.0 mph 3.0 mph 42% 0.00 in 566.00 W/m2
17:02 92.1 °F 65.7 °F 29.76 in West 4.0 mph 5.0 mph 42% 0.00 in 550.00 W/m2
17:07 92.1 °F 65.0 °F 29.76 in Calm   7.0 mph 41% 0.00 in 538.00 W/m2
17:12 92.2 °F 65.1 °F 29.76 in Calm     41% 0.00 in 519.00 W/m2
17:17 92.2 °F 65.8 °F 29.76 in Calm     42% 0.00 in 504.00 W/m2
17:22 92.1 °F 65.7 °F 29.76 in Calm     42% 0.00 in 487.00 W/m2
17:27 92.0 °F 66.3 °F 29.76 in WSW 2.0 mph 6.0 mph 43% 0.00 in 473.00 W/m2
17:32 92.0 °F 66.3 °F 29.76 in WSW 3.0 mph 6.0 mph 43% 0.00 in 457.00 W/m2
17:37 91.9 °F 66.2 °F 29.76 in Calm   6.0 mph 43% 0.00 in 443.00 W/m2
17:38 91.8 °F 66.8 °F 29.76 in Calm   6.0 mph 44% 0.00 in 439.00 W/m2
17:43 91.7 °F 66.7 °F 29.76 in WSW 5.0 mph 6.0 mph 44% 0.00 in 425.00 W/m2
17:48 91.7 °F 66.7 °F 29.76 in Calm   4.0 mph 44% 0.00 in 410.00 W/m2
17:53 91.6 °F 66.0 °F 29.76 in West 1.0 mph 5.0 mph 43% 0.00 in 396.00 W/m2
17:58 91.5 °F 65.9 °F 29.76 in Calm   5.0 mph 43% 0.00 in 378.00 W/m2
18:04 91.4 °F 65.8 °F 29.76 in Calm   6.0 mph 43% 0.00 in 364.00 W/m2
18:09 91.3 °F 66.3 °F 29.76 in Calm     44% 0.00 in 348.00 W/m2
18:19 91.0 °F 67.4 °F 29.76 in Calm     46% 0.00 in 318.00 W/m2
18:24 90.8 °F 67.2 °F 29.76 in Calm     46% 0.00 in 302.00 W/m2
18:29 90.6 °F 67.6 °F 29.76 in Calm   3.0 mph 47% 0.00 in 288.00 W/m2
18:34 90.2 °F 66.6 °F 29.76 in Calm   2.0 mph 46% 0.00 in 271.00 W/m2
18:39 89.8 °F 67.5 °F 29.76 in Calm     48% 0.00 in 253.00 W/m2
18:44 89.5 °F 67.8 °F 29.76 in Calm     49% 0.00 in 239.00 W/m2
18:49 89.1 °F 69.2 °F 29.76 in Calm     52% 0.00 in 223.00 W/m2
18:54 88.6 °F 68.7 °F 29.76 in Calm     52% 0.00 in 209.00 W/m2
18:59 88.2 °F 69.5 °F 29.76 in Calm     54% 0.00 in 193.00 W/m2
19:04 87.8 °F 69.1 °F 29.76 in Calm     54% 0.00 in 179.00 W/m2
19:09 87.4 °F 69.3 °F 29.76 in Calm     55% 0.00 in 163.00 W/m2
19:14 86.9 °F 68.8 °F 29.76 in Calm     55% 0.00 in 146.00 W/m2
19:19 86.6 °F 69.1 °F 29.76 in Calm     56% 0.00 in 130.00 W/m2
19:24 86.3 °F 68.8 °F 29.76 in Calm     56% 0.00 in 113.00 W/m2
19:29 86.0 °F 69.5 °F 29.76 in Calm     58% 0.00 in 98.00 W/m2
19:34 85.6 °F 69.1 °F 29.76 in Calm     58% 0.00 in 83.00 W/m2
19:39 85.2 °F 68.8 °F 29.76 in Calm     58% 0.00 in 69.00 W/m2
19:44 84.8 °F 68.4 °F 29.76 in Calm     58% 0.00 in 56.00 W/m2
19:49 84.6 °F 68.2 °F 29.76 in Calm     58% 0.00 in 46.00 W/m2
19:54 84.2 °F 67.8 °F 29.76 in Calm     58% 0.00 in 37.00 W/m2
19:59 83.9 °F 67.6 °F 29.76 in Calm     58% 0.00 in 28.00 W/m2
20:04 83.6 °F 67.3 °F 29.76 in Calm     58% 0.00 in 23.00 W/m2
20:09 83.2 °F 66.4 °F 29.76 in Calm     57% 0.00 in 18.00 W/m2
20:14 82.8 °F 66.5 °F 29.76 in Calm     58% 0.00 in 16.00 W/m2
20:19 82.5 °F 66.2 °F 29.76 in Calm     58% 0.00 in 12.00 W/m2
20:24 82.2 °F 66.0 °F 29.76 in Calm     58% 0.00 in 9.00 W/m2
20:29 82.0 °F 65.8 °F 29.76 in Calm     58% 0.00 in 7.00 W/m2
20:35 81.7 °F 65.0 °F 29.76 in Calm     57% 0.00 in 5.00 W/m2
20:40 81.5 °F 65.3 °F 29.76 in Calm     58% 0.00 in 0.00 W/m2
20:45 81.3 °F 65.1 °F 29.76 in Calm     58% 0.00 in 0.00 W/m2
20:50 81.2 °F 65.0 °F 29.76 in Calm     58% 0.00 in 0.00 W/m2
20:55 81.0 °F 64.8 °F 29.76 in Calm     58% 0.00 in 0.00 W/m2
21:00 80.8 °F 64.7 °F 29.77 in Calm     58% 0.00 in 0.00 W/m2
21:05 80.6 °F 64.5 °F 29.77 in Calm     58% 0.00 in 0.00 W/m2
21:10 80.4 °F 64.3 °F 29.77 in Calm     58% 0.00 in 0.00 W/m2
21:15 80.4 °F 64.8 °F 29.77 in Calm     59% 0.00 in 0.00 W/m2
21:20 80.3 °F 64.7 °F 29.77 in Calm     59% 0.00 in 0.00 W/m2
21:25 80.1 °F 64.5 °F 29.77 in Calm     59% 0.00 in 0.00 W/m2
21:30 80.0 °F 64.4 °F 29.78 in Calm     59% 0.00 in 0.00 W/m2
21:35 80.0 °F 64.4 °F 29.78 in Calm   2.0 mph 59% 0.00 in 0.00 W/m2
21:40 79.9 °F 64.3 °F 29.78 in SE 2.0 mph 4.0 mph 59% 0.00 in 0.00 W/m2
21:45 79.9 °F 64.3 °F 29.78 in SE 1.0 mph 2.0 mph 59% 0.00 in 0.00 W/m2
21:50 79.9 °F 64.8 °F 29.78 in Calm   4.0 mph 60% 0.00 in 0.00 W/m2
21:55 79.8 °F 64.7 °F 29.78 in ESE 1.0 mph 5.0 mph 60% 0.00 in 0.00 W/m2
22:00 79.8 °F 65.2 °F 29.78 in Calm   6.0 mph 61% 0.00 in 0.00 W/m2
22:05 79.8 °F 65.2 °F 29.79 in ESE 1.0 mph 4.0 mph 61% 0.00 in 0.00 W/m2
22:10 79.8 °F 65.2 °F 29.78 in ESE 5.0 mph 5.0 mph 61% 0.00 in 0.00 W/m2
22:15 79.8 °F 65.2 °F 29.78 in East 1.0 mph 6.0 mph 61% 0.00 in 0.00 W/m2
22:20 79.8 °F 65.6 °F 29.79 in ESE 1.0 mph 9.0 mph 62% 0.00 in 0.00 W/m2
22:25 79.7 °F 65.5 °F 29.79 in ESE 6.0 mph 8.0 mph 62% 0.00 in 0.00 W/m2
22:30 79.7 °F 65.5 °F 29.79 in Calm   8.0 mph 62% 0.00 in 0.00 W/m2
22:35 79.7 °F 65.5 °F 29.79 in ESE 1.0 mph 8.0 mph 62% 0.00 in 0.00 W/m2
22:40 79.6 °F 65.4 °F 29.79 in Calm   8.0 mph 62% 0.00 in 0.00 W/m2
22:45 79.6 °F 65.4 °F 29.79 in Calm   5.0 mph 62% 0.00 in 0.00 W/m2
22:50 79.6 °F 65.9 °F 29.79 in Calm   6.0 mph 63% 0.00 in 0.00 W/m2
22:55 79.6 °F 65.9 °F 29.79 in Calm   8.0 mph 63% 0.00 in 0.00 W/m2
23:00 79.5 °F 65.8 °F 29.79 in Calm   7.0 mph 63% 0.00 in 0.00 W/m2
23:05 79.5 °F 65.8 °F 29.79 in Calm   7.0 mph 63% 0.00 in 0.00 W/m2
23:10 79.4 °F 65.7 °F 29.79 in ESE 1.0 mph 9.0 mph 63% 0.00 in 0.00 W/m2
23:15 79.3 °F 65.6 °F 29.79 in ESE 4.0 mph 8.0 mph 63% 0.00 in 0.00 W/m2
23:20 79.1 °F 65.4 °F 29.79 in East 4.0 mph 11.0 mph 63% 0.00 in 0.00 W/m2
23:25 79.0 °F 65.3 °F 29.79 in ESE 1.0 mph 9.0 mph 63% 0.00 in 0.00 W/m2
23:30 78.9 °F 65.2 °F 29.79 in Calm   5.0 mph 63% 0.00 in 0.00 W/m2
23:35 78.7 °F 65.5 °F 29.79 in Calm   7.0 mph 64% 0.00 in 0.00 W/m2
23:40 78.6 °F 65.4 °F 29.79 in East 4.0 mph 7.0 mph 64% 0.00 in 0.00 W/m2
23:45 78.4 °F 65.2 °F 29.79 in East 5.0 mph 7.0 mph 64% 0.00 in 0.00 W/m2
23:50 78.3 °F 65.1 °F 29.79 in Calm   7.0 mph 64% 0.00 in 0.00 W/m2
23:55 78.2 °F 65.0 °F 29.79 in Calm   4.0 mph 64% 0.00 in 0.00 W/m2
Foresthill Weather
 WU-history PHP script courtesy of   Juneau County Weather.
powered by Cumulus v1.9.3 (1059)
Ambient Weather VWS v14.00
Top Contact Website Map Copyright © 2007 - 2018 Foresthillweather.com Never base important decisions on this or any weather information obtained from the Internet